Time;durP1;ratioP1;P1;durP2;ratioP2;P2;SDS_P1;SDS_P2;PMS_P1;PMS_P2;Temp;Humidity;BMP_temperature;BMP_pressure;BME280_temperature;BME280_humidity;BME280_pressure;Samples;Min_cycle;Max_cycle;Signal;HPM_P1;HPM_P2
2022/05/06 02:34:16;;;;;;;;;;;;;;;7.80;54.57;101678.44;6229738;23;19935;-88
2022/05/06 02:36:44;;;;;;;;;;;;;;;7.83;55.29;101683.53;6212954;23;19908;-89
2022/05/06 02:39:28;;;;;;;;;;;;;;;7.61;54.81;101684.34;6203250;23;19916;-89
2022/05/06 02:45:22;;;;;;;;;;;;;;;7.53;55.82;101686.72;6213404;23;19941;-90
2022/05/06 02:57:07;;;;;;;;;;;;;;;7.67;55.17;101689.19;6212426;23;20291;-88
2022/05/06 03:05:45;;;;;;;;;;;;;;;7.47;55.74;101692.53;6212873;22;19943;-88
2022/05/06 03:11:19;;;;;;;;;;;;;;;7.55;54.20;101700.84;6213611;23;19985;-87
2022/05/06 03:22:56;;;;;;;;;;;;;;;7.28;55.63;101704.63;6212758;22;19918;-88
2022/05/06 03:28:36;;;;;;;;;;;;;;;7.47;56.18;101704.13;6215345;23;19930;-91
2022/05/06 03:34:30;;;;;;;;;;;;;;;7.48;56.45;101708.47;6213833;23;19923;-92
2022/05/06 03:40:10;;;;;;;;;;;;;;;7.44;55.55;101708.81;6211619;23;19919;-90
2022/05/06 03:45:51;;;;;;;;;;;;;;;7.65;54.71;101709.03;6213905;23;19981;-89
2022/05/06 03:54:39;;;;;;;;;;;;;;;8.02;53.28;101709.75;6212873;22;19943;-89
2022/05/06 03:57:04;;;;;;;;;;;;;;;8.08;53.27;101722.69;6208906;23;19916;-89
2022/05/06 04:00:01;;;;;;;;;;;;;;;8.18;53.25;101720.97;6190436;23;19927;-90
2022/05/06 04:02:38;;;;;;;;;;;;;;;8.11;53.19;101717.06;6221084;23;19927;-94
2022/05/06 04:05:11;;;;;;;;;;;;;;;8.12;53.05;101718.75;6223858;23;19934;-93
2022/05/06 04:08:03;;;;;;;;;;;;;;;8.07;53.35;101720.94;6176191;23;19927;-94
2022/05/06 04:14:10;;;;;;;;;;;;;;;8.17;52.92;101723.75;6233598;23;19956;-95
2022/05/06 04:17:35;;;;;;;;;;;;;;;8.10;53.09;101728.78;6209374;22;19917;-94
2022/05/06 05:00:47;;;;;;;;;;;;;;;13.61;38.02;101723.84;6229841;23;20286;-91
2022/05/06 05:06:36;;;;;;;;;;;;;;;14.20;37.00;101713.31;6230332;23;19933;-95
2022/05/06 05:09:26;;;;;;;;;;;;;;;14.72;36.33;101710.56;6226669;22;19916;-90
2022/05/06 05:12:28;;;;;;;;;;;;;;;15.30;35.36;101715.16;6205675;22;20717;-95
2022/05/06 05:14:59;;;;;;;;;;;;;;;15.80;34.03;101719.66;6257881;22;19952;-91
2022/05/06 05:17:51;;;;;;;;;;;;;;;15.95;33.76;101721.69;6225000;23;19920;-91
2022/05/06 05:22:58;;;;;;;;;;;;;;;16.87;32.64;101719.44;6237369;22;19924;-93
2022/05/06 05:28:30;;;;;;;;;;;;;;;17.69;32.07;101729.81;6219668;23;19925;-92
2022/05/06 05:31:03;;;;;;;;;;;;;;;18.14;31.86;101720.78;6166387;23;19918;-94
2022/05/06 05:33:32;;;;;;;;;;;;;;;18.31;32.21;101721.47;6214407;23;19927;-95
2022/05/06 05:36:07;;;;;;;;;;;;;;;18.71;32.02;101724.75;6220586;23;19923;-94
2022/05/06 05:41:52;;;;;;;;;;;;;;;18.95;31.79;101722.78;6224237;23;19957;-94
2022/05/06 05:53:38;;;;;;;;;;;;;;;19.84;30.93;101729.84;6233588;23;19929;-94
2022/05/06 05:56:25;;;;;;;;;;;;;;;20.08;30.64;101731.28;6231507;22;19920;-94
2022/05/06 05:59:13;;;;;;;;;;;;;;;20.18;30.65;101729.06;6229174;23;19906;-95
2022/05/06 06:01:38;;;;;;;;;;;;;;;20.21;30.21;101728.69;6220213;23;19912;-91
2022/05/06 06:04:05;;;;;;;;;;;;;;;20.52;30.16;101727.41;6224585;23;19923;-92
2022/05/06 06:06:31;;;;;;;;;;;;;;;20.82;29.48;101715.19;6224910;23;19904;-88
2022/05/06 06:08:57;;;;;;;;;;;;;;;20.99;29.51;101720.31;6221955;23;19896;-90
2022/05/06 06:11:27;;;;;;;;;;;;;;;21.20;29.00;101728.38;6226167;23;20018;-89
2022/05/06 06:13:52;;;;;;;;;;;;;;;21.32;29.04;101719.59;6228042;23;19900;-89
2022/05/06 06:16:26;;;;;;;;;;;;;;;21.49;28.47;101723.63;6205494;23;19964;-90
2022/05/06 06:18:52;;;;;;;;;;;;;;;21.48;28.75;101719.22;6199963;23;19920;-87
2022/05/06 06:21:19;;;;;;;;;;;;;;;21.74;28.54;101723.06;6201675;23;19915;-88
2022/05/06 06:26:37;;;;;;;;;;;;;;;22.29;21.73;101727.28;6230590;23;19927;-90
2022/05/06 06:29:06;;;;;;;;;;;;;;;22.21;18.93;101729.41;6227675;23;19916;-88
2022/05/06 06:31:37;;;;;;;;;;;;;;;21.91;18.65;101736.13;6236479;23;19944;-88
2022/05/06 06:34:03;;;;;;;;;;;;;;;22.26;18.12;101732.34;6235204;23;20325;-89
2022/05/06 06:36:38;;;;;;;;;;;;;;;22.31;19.04;101732.53;6217396;23;19969;-89
2022/05/06 06:39:07;;;;;;;;;;;;;;;22.46;18.99;101716.72;6211550;23;19912;-89
2022/05/06 06:41:32;;;;;;;;;;;;;;;22.48;18.99;101735.69;6210973;23;19991;-88
2022/05/06 06:44:00;;;;;;;;;;;;;;;22.60;18.81;101735.88;6209602;23;19912;-88
2022/05/06 06:46:28;;;;;;;;;;;;;;;22.47;19.37;101723.84;6211383;23;19939;-88
2022/05/06 06:48:54;;;;;;;;;;;;;;;22.78;19.03;101730.53;6211187;23;19956;-88
2022/05/06 06:51:22;;;;;;;;;;;;;;;22.74;18.66;101734.78;6208960;23;19984;-94
2022/05/06 06:53:55;;;;;;;;;;;;;;;22.84;18.19;101743.38;6217260;23;19912;-93
2022/05/06 06:56:43;;;;;;;;;;;;;;;23.14;17.39;101735.47;6223510;23;19956;-90
2022/05/06 06:59:15;;;;;;;;;;;;;;;23.21;17.63;101740.94;6233013;23;19916;-91
2022/05/06 07:01:56;;;;;;;;;;;;;;;23.16;16.82;101738.00;6209063;23;19916;-93
2022/05/06 07:04:50;;;;;;;;;;;;;;;23.25;17.00;101727.59;6206247;23;19912;-94
2022/05/06 07:12:58;;;;;;;;;;;;;;;23.11;15.72;101733.19;6220647;23;19919;-93
2022/05/06 07:15:32;;;;;;;;;;;;;;;22.96;16.65;101738.06;6216463;23;19912;-93
2022/05/06 07:17:58;;;;;;;;;;;;;;;22.90;16.75;101738.94;6213261;23;20358;-91
2022/05/06 07:20:41;;;;;;;;;;;;;;;;;;;;;
2022/05/06 07:23:32;;;;;;;;;;;;;;;23.39;15.38;101737.47;6215957;23;19927;-95
2022/05/06 07:26:16;;;;;;;;;;;;;;;23.33;15.30;101736.44;6216235;23;19916;-93
2022/05/06 07:28:45;;;;;;;;;;;;;;;23.60;15.10;101747.25;6214591;23;19912;-92
2022/05/06 07:31:42;;;;;;;;;;;;;;;23.54;14.94;101756.38;6225669;22;19919;-92
2022/05/06 07:34:15;;;;;;;;;;;;;;;23.39;15.41;101746.53;6224425;23;19912;-91
2022/05/06 07:36:49;;;;;;;;;;;;;;;23.86;15.18;101759.97;6226021;23;19932;-92
2022/05/06 07:39:19;;;;;;;;;;;;;;;24.22;15.29;101752.91;6198759;23;19923;-91
2022/05/06 07:41:44;;;;;;;;;;;;;;;24.44;15.04;101748.69;6235492;23;19923;-88
2022/05/06 07:44:19;;;;;;;;;;;;;;;24.85;14.95;101751.88;6236014;23;19944;-90
2022/05/06 07:46:46;;;;;;;;;;;;;;;25.05;14.64;101744.22;6234578;23;19927;-91
2022/05/06 07:49:16;;;;;;;;;;;;;;;25.31;14.54;101750.47;6213221;23;20021;-93
2022/05/06 07:51:43;;;;;;;;;;;;;;;25.03;15.66;101754.59;6191620;23;19916;-93
2022/05/06 07:54:08;;;;;;;;;;;;;;;25.62;14.97;101757.63;6214149;23;19916;-91
2022/05/06 07:56:34;;;;;;;;;;;;;;;25.87;13.95;101751.13;6211219;23;19923;-93
2022/05/06 07:59:00;;;;;;;;;;;;;;;26.37;14.32;101747.13;6218078;23;19911;-92
2022/05/06 08:06:56;;;;;;;;;;;;;;;26.27;15.14;101753.19;6230166;23;19983;-93
2022/05/06 08:09:28;;;;;;;;;;;;;;;26.85;14.82;101743.22;6193366;23;19912;-94
2022/05/06 08:12:01;;;;;;;;;;;;;;;26.86;14.60;101745.75;6189996;23;19920;-91
2022/05/06 08:14:26;;;;;;;;;;;;;;;27.16;15.10;101745.53;6218622;23;19928;-93
2022/05/06 08:16:52;;;;;;;;;;;;;;;27.85;14.01;101752.94;6218201;23;19908;-93
2022/05/06 08:19:18;;;;;;;;;;;;;;;28.47;13.76;101753.91;6221624;23;19931;-91
2022/05/06 08:21:43;;;;;;;;;;;;;;;28.69;12.91;101757.56;6220357;23;19949;-92
2022/05/06 08:24:09;;;;;;;;;;;;;;;28.93;12.40;101747.06;6217770;23;19912;-93
2022/05/06 08:26:37;;;;;;;;;;;;;;;28.54;12.98;101755.44;6195371;23;20022;-93
2022/05/06 08:29:03;;;;;;;;;;;;;;;28.71;13.10;101757.31;6220425;23;19990;-93
2022/05/06 08:31:31;;;;;;;;;;;;;;;28.45;13.77;101751.41;6221680;23;19919;-92
2022/05/06 08:33:57;;;;;;;;;;;;;;;27.97;14.40;101756.44;6213819;23;19927;-93
2022/05/06 08:36:23;;;;;;;;;;;;;;;28.13;14.52;101759.47;6217173;23;20003;-92
2022/05/06 08:38:49;;;;;;;;;;;;;;;28.90;13.65;101752.31;6217578;23;19915;-94
2022/05/06 08:41:14;;;;;;;;;;;;;;;29.76;13.46;101751.59;6193915;23;19918;-92
2022/05/06 08:43:40;;;;;;;;;;;;;;;29.78;13.32;101752.19;6189903;23;19912;-92
2022/05/06 08:51:35;;;;;;;;;;;;;;;30.16;13.24;101753.88;6232959;23;19938;-91
2022/05/06 08:54:01;;;;;;;;;;;;;;;29.73;13.57;101749.38;6216976;23;19908;-92
2022/05/06 08:56:30;;;;;;;;;;;;;;;30.46;13.04;101757.97;6216419;23;20355;-94
2022/05/06 08:58:56;;;;;;;;;;;;;;;31.52;12.39;101750.41;6218002;23;19907;-94
2022/05/06 09:01:21;;;;;;;;;;;;;;;29.63;12.90;101753.69;6226644;23;19912;-90
2022/05/06 09:03:50;;;;;;;;;;;;;;;29.13;13.85;101746.53;6215697;23;19920;-92
2022/05/06 09:06:18;;;;;;;;;;;;;;;30.78;12.61;101757.88;6191576;23;20386;-94
2022/05/06 09:08:44;;;;;;;;;;;;;;;31.59;11.93;101759.31;6220699;23;20353;-92
2022/05/06 09:11:09;;;;;;;;;;;;;;;31.22;11.95;101754.75;6214991;23;19916;-94
2022/05/06 09:13:38;;;;;;;;;;;;;;;31.25;11.80;101759.75;6214694;23;19912;-92
2022/05/06 09:19:19;;;;;;;;;;;;;;;31.68;11.99;101757.66;6220479;23;19961;-91
2022/05/06 09:22:00;;;;;;;;;;;;;;;32.46;11.91;101748.16;6234376;23;19912;-88
2022/05/06 09:24:27;;;;;;;;;;;;;;;32.20;11.75;101746.53;6234494;23;19916;-89
2022/05/06 09:27:00;;;;;;;;;;;;;;;32.61;11.83;101746.47;6227662;23;19920;-91
2022/05/06 09:29:29;;;;;;;;;;;;;;;32.65;11.77;101744.78;6218459;23;19920;-92
2022/05/06 09:31:57;;;;;;;;;;;;;;;33.09;11.54;101746.84;6214506;23;20019;-92
2022/05/06 09:34:26;;;;;;;;;;;;;;;33.03;11.39;101742.38;6213173;23;19916;-91
2022/05/06 09:36:51;;;;;;;;;;;;;;;33.30;11.23;101742.81;6212653;23;19912;-92
2022/05/06 09:39:17;;;;;;;;;;;;;;;33.20;11.09;101748.44;6213523;23;19912;-92
2022/05/06 09:41:42;;;;;;;;;;;;;;;32.07;12.41;101748.75;6217244;23;19980;-93
2022/05/06 09:44:08;;;;;;;;;;;;;;;30.53;14.53;101752.19;6217349;23;19926;-91
2022/05/06 09:46:34;;;;;;;;;;;;;;;31.92;13.98;101749.59;6215832;23;19923;-92
2022/05/06 09:49:00;;;;;;;;;;;;;;;31.54;14.54;101759.31;6214745;23;19912;-92
2022/05/06 09:51:29;;;;;;;;;;;;;;;31.46;15.40;101759.84;6213068;23;19935;-93
2022/05/06 09:53:57;;;;;;;;;;;;;;;31.33;15.87;101756.44;6214960;23;19912;-91
2022/05/06 09:56:24;;;;;;;;;;;;;;;31.02;17.05;101754.69;6218694;23;19916;-91
2022/05/06 09:58:52;;;;;;;;;;;;;;;31.32;18.27;101760.31;6216670;23;19941;-91
2022/05/06 10:01:18;;;;;;;;;;;;;;;31.08;18.18;101768.31;6222885;23;20006;-93
2022/05/06 10:03:46;;;;;;;;;;;;;;;30.60;21.58;101763.88;6231205;23;19916;-93
2022/05/06 10:06:11;;;;;;;;;;;;;;;30.11;23.57;101766.88;6213617;23;19933;-92
2022/05/06 10:08:42;;;;;;;;;;;;;;;30.38;23.19;101766.81;6218721;23;19996;-91
2022/05/06 10:11:12;;;;;;;;;;;;;;;30.53;23.96;101766.91;6222535;23;19923;-93
2022/05/06 10:13:40;;;;;;;;;;;;;;;29.77;24.34;101775.47;6217949;23;19912;-92
2022/05/06 10:16:06;;;;;;;;;;;;;;;28.85;23.70;101783.50;6217282;23;19920;-93
2022/05/06 10:18:37;;;;;;;;;;;;;;;29.36;23.65;101775.88;6213198;23;20248;-91
2022/05/06 10:21:09;;;;;;;;;;;;;;;28.69;23.75;101776.94;6214091;23;19945;-93
2022/05/06 10:23:47;;;;;;;;;;;;;;;28.22;24.67;101777.31;6215118;23;19920;-91
2022/05/06 10:26:31;;;;;;;;;;;;;;;28.85;23.42;101779.91;6218020;23;19912;-91
2022/05/06 10:34:25;;;;;;;;;;;;;;;29.31;27.37;101773.00;6219778;23;19930;-92
2022/05/06 10:36:52;;;;;;;;;;;;;;;27.97;29.19;101772.19;6225222;23;19990;-93
2022/05/06 10:39:19;;;;;;;;;;;;;;;28.50;27.81;101767.25;6220766;23;19947;-93
2022/05/06 10:42:00;;;;;;;;;;;;;;;29.06;27.06;101770.78;6195456;23;19992;-94
2022/05/06 10:44:38;;;;;;;;;;;;;;;28.12;27.91;101775.22;6193290;23;19912;-92
2022/05/06 10:47:23;;;;;;;;;;;;;;;27.10;29.68;101767.75;6213491;23;19939;-93
2022/05/06 10:49:52;;;;;;;;;;;;;;;27.38;30.17;101768.91;6210619;23;19987;-91
2022/05/06 10:52:24;;;;;;;;;;;;;;;27.05;30.31;101764.91;6210445;23;19912;-92
2022/05/06 10:55:00;;;;;;;;;;;;;;;27.86;29.12;101764.81;6214630;23;19912;-93
2022/05/06 10:57:26;;;;;;;;;;;;;;;27.13;29.74;101773.63;6216741;23;20375;-93
2022/05/06 10:59:51;;;;;;;;;;;;;;;26.49;30.77;101773.59;6224039;23;19961;-90
2022/05/06 11:02:17;;;;;;;;;;;;;;;27.13;30.09;101765.34;6234381;23;19916;-91
2022/05/06 11:04:52;;;;;;;;;;;;;;;26.10;31.96;101769.63;6234238;23;19947;-91
2022/05/06 11:07:17;;;;;;;;;;;;;;;24.75;34.32;101757.06;6217089;23;19903;-92
2022/05/06 11:09:43;;;;;;;;;;;;;;;24.12;35.85;101767.16;6213214;23;19968;-92
2022/05/06 11:12:09;;;;;;;;;;;;;;;23.82;36.94;101766.16;6212817;23;19915;-91
2022/05/06 11:14:34;;;;;;;;;;;;;;;24.56;35.84;101764.44;6213078;23;20018;-91
2022/05/06 11:17:18;;;;;;;;;;;;;;;24.63;35.43;101756.97;6215774;23;20197;-92
2022/05/06 11:19:43;;;;;;;;;;;;;;;24.73;34.96;101764.72;6213003;23;20008;-91
2022/05/06 11:22:09;;;;;;;;;;;;;;;24.60;35.55;101755.50;6211943;23;20272;-92
2022/05/06 11:24:34;;;;;;;;;;;;;;;25.16;34.26;101752.75;6210734;23;19987;-92
2022/05/06 11:27:16;;;;;;;;;;;;;;;24.42;35.57;101758.22;6209355;23;19916;-93
2022/05/06 11:30:00;;;;;;;;;;;;;;;24.23;36.26;101754.59;6209968;23;19908;-92
2022/05/06 11:32:28;;;;;;;;;;;;;;;23.74;36.96;101746.13;6212732;23;20385;-92
2022/05/06 11:35:03;;;;;;;;;;;;;;;22.33;39.93;101757.81;6209850;23;19918;-92
2022/05/06 11:37:29;;;;;;;;;;;;;;;21.62;41.51;101756.50;6221354;23;19912;-91
2022/05/06 11:42:38;;;;;;;;;;;;;;;22.41;40.34;101735.69;6226494;23;20386;-92
2022/05/06 11:47:48;;;;;;;;;;;;;;;22.62;39.37;101736.50;6234870;23;19922;-91
2022/05/06 11:50:14;;;;;;;;;;;;;;;22.45;39.54;101741.56;6226587;23;19916;-91
2022/05/06 11:52:39;;;;;;;;;;;;;;;21.45;41.46;101738.81;6211197;23;19912;-92
2022/05/06 11:55:05;;;;;;;;;;;;;;;20.98;42.53;101735.88;6189289;23;19935;-92
2022/05/06 11:57:30;;;;;;;;;;;;;;;21.43;41.99;101738.16;6213447;23;19912;-91
2022/05/06 11:59:56;;;;;;;;;;;;;;;20.97;43.04;101733.34;6185435;23;19911;-94
2022/05/06 12:02:21;;;;;;;;;;;;;;;20.85;43.40;101733.91;6183494;23;19916;-92
2022/05/06 12:04:49;;;;;;;;;;;;;;;20.70;44.34;101737.81;6213506;23;19963;-92
2022/05/06 12:07:14;;;;;;;;;;;;;;;19.89;46.57;101735.56;6220519;23;19919;-92
2022/05/06 12:09:43;;;;;;;;;;;;;;;19.53;47.83;101737.28;6215050;23;19912;-93
2022/05/06 12:12:09;;;;;;;;;;;;;;;19.55;48.12;101732.50;6214214;23;19916;-92
2022/05/06 12:14:34;;;;;;;;;;;;;;;19.48;48.23;101728.84;6189229;23;19920;-92
2022/05/06 12:17:01;;;;;;;;;;;;;;;19.45;48.11;101734.66;6215209;23;19995;-91
2022/05/06 12:19:36;;;;;;;;;;;;;;;18.87;49.25;101726.47;6188146;23;19938;-91
2022/05/06 12:22:09;;;;;;;;;;;;;;;18.52;49.88;101728.88;6187526;23;19912;-92
2022/05/06 12:24:38;;;;;;;;;;;;;;;18.12;51.10;101719.25;6214263;23;19916;-91
2022/05/06 12:27:03;;;;;;;;;;;;;;;18.13;51.35;101712.78;6215282;23;20225;-91
2022/05/06 12:29:29;;;;;;;;;;;;;;;17.98;51.72;101722.78;6194341;23;19990;-91
2022/05/06 12:32:00;;;;;;;;;;;;;;;17.72;52.03;101732.16;6224526;23;20254;-89
2022/05/06 12:34:29;;;;;;;;;;;;;;;17.44;52.75;101720.97;6208422;23;19934;-93
2022/05/06 12:37:07;;;;;;;;;;;;;;;17.41;52.06;101719.47;6218896;23;19912;-92
2022/05/06 12:39:37;;;;;;;;;;;;;;;17.67;51.99;101718.25;6218726;23;19912;-89
2022/05/06 12:42:11;;;;;;;;;;;;;;;17.29;53.62;101718.19;6188616;23;19916;-91
2022/05/06 12:44:37;;;;;;;;;;;;;;;17.17;52.36;101717.75;6193654;23;19919;-95
2022/05/06 12:50:51;;;;;;;;;;;;;;;17.30;52.36;101717.16;6230644;23;19919;-95
2022/05/06 12:53:19;;;;;;;;;;;;;;;17.61;51.25;101713.56;6125791;23;19936;-94
2022/05/06 12:56:03;;;;;;;;;;;;;;;17.64;51.72;101715.91;6196280;23;19913;-93
2022/05/06 12:58:41;;;;;;;;;;;;;;;17.46;51.56;101708.88;6293048;22;19931;-92
2022/05/06 13:01:07;;;;;;;;;;;;;;;17.02;53.08;101714.97;6237104;22;19912;-91
2022/05/06 13:03:44;;;;;;;;;;;;;;;;;;;;;
2022/05/06 13:06:12;;;;;;;;;;;;;;;17.21;52.35;101710.09;6210291;23;20000;-83
2022/05/06 13:08:47;;;;;;;;;;;;;;;17.44;50.17;101705.53;6202031;23;19919;-90
2022/05/06 13:11:28;;;;;;;;;;;;;;;17.58;50.09;101708.47;6225045;23;19919;-92
2022/05/06 13:13:55;;;;;;;;;;;;;;;17.37;50.36;101701.84;6170851;23;20297;-91
2022/05/06 13:16:24;;;;;;;;;;;;;;;17.29;52.24;101704.59;6163999;23;19973;-92
2022/05/06 13:18:52;;;;;;;;;;;;;;;17.61;52.10;101697.25;6169682;23;19935;-91
2022/05/06 13:21:19;;;;;;;;;;;;;;;17.60;51.77;101695.53;6190779;23;19912;-89
2022/05/06 13:23:51;;;;;;;;;;;;;;;17.90;50.44;101696.50;6194434;23;19912;-91
2022/05/06 13:26:18;;;;;;;;;;;;;;;18.16;50.47;101690.66;6192987;23;19952;-91
2022/05/06 13:35:15;;;;;;;;;;;;;;;17.76;51.34;101694.56;6197693;23;19924;-90
2022/05/06 13:40:41;;;;;;;;;;;;;;;17.75;51.92;101693.72;6213626;23;19915;-92
2022/05/06 13:43:40;;;;;;;;;;;;;;;17.07;54.74;101695.41;6186819;23;19944;-90
2022/05/06 13:46:06;;;;;;;;;;;;;;;17.37;54.18;101684.66;6222346;22;19912;-93
2022/05/06 13:48:45;;;;;;;;;;;;;;;17.57;52.50;101691.31;6210412;23;19930;-91
2022/05/06 13:51:10;;;;;;;;;;;;;;;17.44;52.77;101689.22;6209517;23;19915;-91
2022/05/06 13:53:39;;;;;;;;;;;;;;;17.03;54.17;101689.47;6201021;23;20009;-90
2022/05/06 13:59:06;;;;;;;;;;;;;;;16.89;52.12;101684.81;6193934;23;19969;-90
2022/05/06 14:01:35;;;;;;;;;;;;;;;16.75;55.54;101685.53;6165604;22;19989;-91
2022/05/06 14:04:01;;;;;;;;;;;;;;;16.40;55.78;101682.25;6213606;23;20367;-90
2022/05/06 14:09:30;;;;;;;;;;;;;;;16.67;55.24;101692.69;6224529;23;19931;-90
2022/05/06 14:11:59;;;;;;;;;;;;;;;16.77;54.74;101694.34;6165419;23;19960;-92
2022/05/06 14:14:28;;;;;;;;;;;;;;;17.05;54.02;101684.72;6188483;23;19919;-90
2022/05/06 14:16:59;;;;;;;;;;;;;;;17.12;53.64;101686.72;6163568;23;20005;-90
2022/05/06 14:19:25;;;;;;;;;;;;;;;17.24;52.48;101696.16;6160929;23;19915;-91
2022/05/06 14:21:51;;;;;;;;;;;;;;;16.99;52.67;101696.28;6188466;23;20589;-89
2022/05/06 14:24:18;;;;;;;;;;;;;;;17.07;53.41;101701.69;6161277;22;19916;-91
2022/05/06 14:26:54;;;;;;;;;;;;;;;16.83;52.96;101694.53;6213631;23;20040;-89
2022/05/06 14:29:19;;;;;;;;;;;;;;;16.63;54.02;101694.03;6182779;23;19934;-87
2022/05/06 14:31:45;;;;;;;;;;;;;;;16.47;53.68;101688.69;6211731;23;19911;-85
2022/05/06 14:34:11;;;;;;;;;;;;;;;16.46;54.91;101681.56;6210972;23;19920;-87
2022/05/06 14:36:37;;;;;;;;;;;;;;;16.15;55.65;101674.16;6182473;23;19912;-86
2022/05/06 14:39:03;;;;;;;;;;;;;;;16.18;54.88;101679.25;6208454;23;20201;-85
2022/05/06 14:41:29;;;;;;;;;;;;;;;16.29;55.22;101690.75;6207875;23;19912;-87
2022/05/06 14:44:02;;;;;;;;;;;;;;;16.22;55.95;101690.59;6210924;23;19934;-90
2022/05/06 14:49:44;;;;;;;;;;;;;;;16.45;54.17;101693.44;6212258;23;19981;-87
2022/05/06 14:52:14;;;;;;;;;;;;;;;16.38;53.68;101690.56;6185403;22;20000;-86
2022/05/06 14:54:40;;;;;;;;;;;;;;;16.22;52.94;101677.91;6211017;23;20328;-92
2022/05/06 14:57:13;;;;;;;;;;;;;;;16.57;52.69;101678.44;6184336;23;20010;-88
2022/05/06 14:59:39;;;;;;;;;;;;;;;16.63;51.76;101680.47;6159261;23;19920;-87
2022/05/06 15:02:05;;;;;;;;;;;;;;;16.75;51.70;101682.81;6158765;23;19969;-87
2022/05/06 15:04:30;;;;;;;;;;;;;;;16.79;51.77;101685.03;6158924;23;19916;-86
2022/05/06 15:06:57;;;;;;;;;;;;;;;16.83;52.21;101677.34;6211009;23;19919;-87
2022/05/06 15:09:23;;;;;;;;;;;;;;;16.87;52.68;101674.09;6209160;23;20386;-86
2022/05/06 15:11:48;;;;;;;;;;;;;;;16.79;52.00;101676.03;6211756;23;19912;-86
2022/05/06 15:14:14;;;;;;;;;;;;;;;16.61;53.35;101677.09;6182965;23;19969;-86
2022/05/06 15:16:39;;;;;;;;;;;;;;;16.68;52.99;101672.63;6207805;23;19916;-86
2022/05/06 15:19:27;;;;;;;;;;;;;;;16.73;53.54;101676.69;6182943;23;19997;-86
2022/05/06 15:21:52;;;;;;;;;;;;;;;16.73;53.77;101665.84;6186106;23;19923;-89
2022/05/06 15:24:19;;;;;;;;;;;;;;;16.34;54.85;101666.66;6210782;23;19912;-86
2022/05/06 15:26:46;;;;;;;;;;;;;;;16.08;54.86;101666.91;6183470;23;20292;-88
2022/05/06 15:29:11;;;;;;;;;;;;;;;15.94;53.76;101668.44;6211401;23;20348;-88
2022/05/06 15:31:36;;;;;;;;;;;;;;;15.83;53.89;101673.22;6184153;23;19922;-87
2022/05/06 15:34:02;;;;;;;;;;;;;;;15.80;56.10;101673.56;6210135;23;19918;-89
2022/05/06 15:36:27;;;;;;;;;;;;;;;15.78;56.15;101678.31;6184349;23;20006;-87
2022/05/06 15:38:53;;;;;;;;;;;;;;;15.98;56.23;101677.94;6210638;23;19912;-87
2022/05/06 15:41:19;;;;;;;;;;;;;;;16.04;55.96;101669.13;6184615;23;20003;-87
2022/05/06 15:43:48;;;;;;;;;;;;;;;16.00;55.88;101668.63;6183948;23;20008;-85
2022/05/06 15:46:15;;;;;;;;;;;;;;;15.82;56.33;101657.94;6190559;23;19919;-85
2022/05/06 15:48:41;;;;;;;;;;;;;;;16.02;55.44;101652.19;6222777;23;20024;-86
2022/05/06 15:51:07;;;;;;;;;;;;;;;15.83;55.81;101648.81;6193079;23;19912;-86
2022/05/06 15:53:35;;;;;;;;;;;;;;;15.94;55.02;101644.03;6184012;23;19912;-91
2022/05/06 15:56:00;;;;;;;;;;;;;;;15.93;54.81;101642.34;6163607;22;19918;-88
2022/05/06 15:58:27;;;;;;;;;;;;;;;15.97;53.55;101638.28;6209708;23;19934;-85
2022/05/06 16:00:54;;;;;;;;;;;;;;;16.23;51.75;101630.75;6183678;23;19943;-86
2022/05/06 16:03:19;;;;;;;;;;;;;;;16.10;52.26;101627.72;6210619;23;19947;-87
2022/05/06 16:05:46;;;;;;;;;;;;;;;16.02;53.12;101639.47;6183220;23;19919;-87
2022/05/06 16:08:13;;;;;;;;;;;;;;;15.81;53.25;101647.28;6211780;23;19923;-86
2022/05/06 16:10:39;;;;;;;;;;;;;;;15.61;53.63;101644.03;6209939;23;20070;-88
2022/05/06 16:13:04;;;;;;;;;;;;;;;15.29;54.80;101659.28;6161634;23;19916;-88
2022/05/06 16:15:30;;;;;;;;;;;;;;;15.25;54.81;101660.63;6183533;23;19919;-87
2022/05/06 16:18:01;;;;;;;;;;;;;;;15.16;55.51;101654.34;6208901;23;19988;-87
2022/05/06 16:20:27;;;;;;;;;;;;;;;15.21;55.91;101653.84;6184698;23;20377;-86
2022/05/06 16:22:53;;;;;;;;;;;;;;;15.14;56.69;101661.78;6184287;23;19916;-88
2022/05/06 16:25:20;;;;;;;;;;;;;;;14.93;57.36;101661.41;6211808;23;20001;-89
2022/05/06 16:27:45;;;;;;;;;;;;;;;14.80;58.90;101670.03;6162356;22;19908;-86
2022/05/06 16:30:27;;;;;;;;;;;;;;;14.84;58.93;101657.81;6185341;23;19920;-90
2022/05/06 16:33:00;;;;;;;;;;;;;;;14.90;59.34;101657.19;6209688;23;19915;-90
2022/05/06 16:38:10;;;;;;;;;;;;;;;14.80;60.94;101650.19;6188483;23;19919;-89
2022/05/06 16:40:40;;;;;;;;;;;;;;;14.73;61.01;101650.88;6159397;23;20042;-91
2022/05/06 16:46:11;;;;;;;;;;;;;;;14.65;61.60;101644.56;6217374;23;19915;-90
2022/05/06 16:48:39;;;;;;;;;;;;;;;14.56;61.56;101633.72;6190349;23;19916;-89
2022/05/06 16:51:05;;;;;;;;;;;;;;;14.47;61.85;101634.69;6189274;23;19912;-90
2022/05/06 16:53:33;;;;;;;;;;;;;;;14.43;61.31;101644.13;6167014;23;19954;-89
2022/05/06 16:56:04;;;;;;;;;;;;;;;14.34;61.62;101634.28;6189828;22;19995;-90
2022/05/06 16:58:34;;;;;;;;;;;;;;;14.33;61.70;101635.28;6166832;23;19923;-91
2022/05/06 17:00:59;;;;;;;;;;;;;;;14.26;61.86;101631.53;6199696;23;19934;-89
2022/05/06 17:03:25;;;;;;;;;;;;;;;14.17;61.89;101635.22;6177271;23;19907;-90
2022/05/06 17:05:50;;;;;;;;;;;;;;;14.14;61.89;101639.94;6173420;22;19907;-88
2022/05/06 17:08:16;;;;;;;;;;;;;;;14.10;61.91;101643.97;6185433;23;19900;-86
2022/05/06 17:10:41;;;;;;;;;;;;;;;14.06;61.98;101652.53;6207663;23;19927;-87
2022/05/06 17:13:07;;;;;;;;;;;;;;;13.95;62.20;101642.84;6193621;23;19965;-91
2022/05/06 17:15:32;;;;;;;;;;;;;;;13.96;62.67;101647.25;6169841;22;19912;-89
2022/05/06 17:17:57;;;;;;;;;;;;;;;13.79;63.22;101640.03;6196508;22;19987;-88
2022/05/06 17:20:23;;;;;;;;;;;;;;;13.81;63.49;101644.25;6170737;23;19920;-90
2022/05/06 17:22:51;;;;;;;;;;;;;;;13.72;64.19;101654.19;6189207;23;19990;-90
2022/05/06 17:25:17;;;;;;;;;;;;;;;13.71;64.47;101659.72;6166083;23;19912;-90
2022/05/06 17:27:55;;;;;;;;;;;;;;;13.63;64.78;101668.63;6165184;23;19912;-89
2022/05/06 17:30:21;;;;;;;;;;;;;;;13.44;65.15;101685.03;6188342;23;19916;-88
2022/05/06 17:32:50;;;;;;;;;;;;;;;13.50;65.24;101681.69;6185053;23;19916;-90
2022/05/06 17:35:20;;;;;;;;;;;;;;;13.56;64.76;101678.38;6186294;23;19912;-89
2022/05/06 17:37:51;;;;;;;;;;;;;;;13.39;65.39;101676.50;6215514;23;19912;-87
2022/05/06 17:40:22;;;;;;;;;;;;;;;13.32;64.86;101672.72;6193843;23;19916;-89
2022/05/06 17:43:02;;;;;;;;;;;;;;;13.36;64.98;101677.66;6221842;23;19952;-92
2022/05/06 17:45:32;;;;;;;;;;;;;;;13.41;65.13;101685.31;6194266;23;20245;-91
2022/05/06 17:48:00;;;;;;;;;;;;;;;13.43;63.82;101677.91;6169551;23;19957;-92
2022/05/06 17:50:26;;;;;;;;;;;;;;;13.39;63.67;101687.31;6166951;23;19931;-87
2022/05/06 17:52:55;;;;;;;;;;;;;;;13.38;63.89;101685.63;6187657;22;19916;-91
2022/05/06 17:55:35;;;;;;;;;;;;;;;13.28;64.03;101678.44;6216850;23;19930;-90
2022/05/06 17:58:17;;;;;;;;;;;;;;;;;;;;;
2022/05/06 18:13:48;;;;;;;;;;;;;;;12.98;65.90;101709.31;6317533;22;19917;-91
2022/05/06 18:19:20;;;;;;;;;;;;;;;12.95;64.97;101695.28;6319920;22;19915;-93
2022/05/06 18:22:07;;;;;;;;;;;;;;;12.88;64.41;101705.84;6314450;22;19945;-90
2022/05/06 18:25:00;;;;;;;;;;;;;;;12.77;58.64;101704.16;6325887;22;19899;-93
2022/05/06 18:27:35;;;;;;;;;;;;;;;12.75;55.10;101706.16;6307805;22;19903;-91
2022/05/06 18:30:28;;;;;;;;;;;;;;;12.71;53.04;101704.75;6191494;22;19919;-92
2022/05/06 18:33:23;;;;;;;;;;;;;;;12.66;53.10;101696.28;6191296;23;19912;-94
2022/05/06 18:36:14;;;;;;;;;;;;;;;12.62;53.83;101689.50;6185893;23;19916;-91
2022/05/06 18:38:41;;;;;;;;;;;;;;;12.52;54.09;101688.66;6190545;23;19916;-89
2022/05/06 18:41:21;;;;;;;;;;;;;;;12.43;53.38;101691.28;6185545;23;19923;-82
2022/05/06 18:44:06;;;;;;;;;;;;;;;12.45;51.43;101686.59;6182566;23;19912;-91